sensor_id;sensor_type;location;lat;lon;timestamp;P1;durP1;ratioP1;P2;durP2;ratioP2
8704;SDS011;4389;41.932;25.904;2023-07-30T00:02:14;3.80;;;2.40;;
8704;SDS011;4389;41.932;25.904;2023-07-30T00:04:42;7.20;;;2.97;;
8704;SDS011;4389;41.932;25.904;2023-07-30T00:07:08;4.87;;;2.90;;
8704;SDS011;4389;41.932;25.904;2023-07-30T00:09:35;5.30;;;3.43;;
8704;SDS011;4389;41.932;25.904;2023-07-30T00:12:04;16.27;;;6.57;;
8704;SDS011;4389;41.932;25.904;2023-07-30T00:14:31;6.23;;;2.63;;
8704;SDS011;4389;41.932;25.904;2023-07-30T00:16:58;5.23;;;2.83;;
8704;SDS011;4389;41.932;25.904;2023-07-30T00:19:25;4.27;;;2.40;;
8704;SDS011;4389;41.932;25.904;2023-07-30T00:21:52;9.57;;;2.47;;
8704;SDS011;4389;41.932;25.904;2023-07-30T00:24:19;6.97;;;2.70;;
8704;SDS011;4389;41.932;25.904;2023-07-30T00:26:46;4.90;;;2.47;;
8704;SDS011;4389;41.932;25.904;2023-07-30T00:29:14;3.27;;;2.40;;
8704;SDS011;4389;41.932;25.904;2023-07-30T00:31:41;4.73;;;2.20;;
8704;SDS011;4389;41.932;25.904;2023-07-30T00:34:08;6.20;;;2.40;;
8704;SDS011;4389;41.932;25.904;2023-07-30T00:36:34;5.67;;;2.50;;
8704;SDS011;4389;41.932;25.904;2023-07-30T00:39:01;5.17;;;2.43;;
8704;SDS011;4389;41.932;25.904;2023-07-30T00:41:28;9.90;;;2.80;;
8704;SDS011;4389;41.932;25.904;2023-07-30T00:43:55;4.53;;;2.60;;
8704;SDS011;4389;41.932;25.904;2023-07-30T00:46:23;10.43;;;2.90;;
8704;SDS011;4389;41.932;25.904;2023-07-30T00:48:50;4.37;;;2.53;;
8704;SDS011;4389;41.932;25.904;2023-07-30T00:51:17;3.03;;;2.47;;
8704;SDS011;4389;41.932;25.904;2023-07-30T00:53:46;3.27;;;2.50;;
8704;SDS011;4389;41.932;25.904;2023-07-30T00:56:13;2.63;;;2.00;;
8704;SDS011;4389;41.932;25.904;2023-07-30T00:58:41;3.97;;;2.50;;
8704;SDS011;4389;41.932;25.904;2023-07-30T01:01:10;7.27;;;2.73;;
8704;SDS011;4389;41.932;25.904;2023-07-30T01:03:40;6.03;;;2.97;;
8704;SDS011;4389;41.932;25.904;2023-07-30T01:06:06;3.93;;;3.10;;
8704;SDS011;4389;41.932;25.904;2023-07-30T01:08:33;4.90;;;2.80;;
8704;SDS011;4389;41.932;25.904;2023-07-30T01:11:01;4.63;;;2.73;;
8704;SDS011;4389;41.932;25.904;2023-07-30T01:13:29;8.23;;;2.77;;
8704;SDS011;4389;41.932;25.904;2023-07-30T01:15:57;4.80;;;2.80;;
8704;SDS011;4389;41.932;25.904;2023-07-30T01:18:24;5.53;;;2.70;;
8704;SDS011;4389;41.932;25.904;2023-07-30T01:20:54;6.70;;;3.47;;
8704;SDS011;4389;41.932;25.904;2023-07-30T01:23:24;7.73;;;5.07;;
8704;SDS011;4389;41.932;25.904;2023-07-30T01:25:53;6.27;;;3.30;;
8704;SDS011;4389;41.932;25.904;2023-07-30T01:28:25;6.53;;;4.60;;
8704;SDS011;4389;41.932;25.904;2023-07-30T01:30:54;6.70;;;3.03;;
8704;SDS011;4389;41.932;25.904;2023-07-30T01:33:23;10.07;;;3.07;;
8704;SDS011;4389;41.932;25.904;2023-07-30T01:35:51;5.53;;;3.30;;
8704;SDS011;4389;41.932;25.904;2023-07-30T01:38:22;8.27;;;3.27;;
8704;SDS011;4389;41.932;25.904;2023-07-30T01:40:49;4.43;;;2.70;;
8704;SDS011;4389;41.932;25.904;2023-07-30T01:43:16;3.77;;;2.93;;
8704;SDS011;4389;41.932;25.904;2023-07-30T01:45:43;6.07;;;2.80;;
8704;SDS011;4389;41.932;25.904;2023-07-30T01:48:10;4.80;;;2.50;;
8704;SDS011;4389;41.932;25.904;2023-07-30T01:50:36;4.53;;;3.20;;
8704;SDS011;4389;41.932;25.904;2023-07-30T01:53:05;3.57;;;3.00;;
8704;SDS011;4389;41.932;25.904;2023-07-30T01:55:31;5.60;;;3.13;;
8704;SDS011;4389;41.932;25.904;2023-07-30T01:58:00;4.53;;;2.73;;
8704;SDS011;4389;41.932;25.904;2023-07-30T02:00:27;5.83;;;2.57;;
8704;SDS011;4389;41.932;25.904;2023-07-30T02:02:54;2.93;;;2.60;;
8704;SDS011;4389;41.932;25.904;2023-07-30T02:05:20;17.43;;;4.43;;
8704;SDS011;4389;41.932;25.904;2023-07-30T02:07:47;5.00;;;2.80;;
8704;SDS011;4389;41.932;25.904;2023-07-30T02:10:15;10.87;;;3.17;;
8704;SDS011;4389;41.932;25.904;2023-07-30T02:12:42;4.13;;;2.60;;
8704;SDS011;4389;41.932;25.904;2023-07-30T02:15:09;6.73;;;2.73;;
8704;SDS011;4389;41.932;25.904;2023-07-30T02:17:36;5.27;;;3.17;;
8704;SDS011;4389;41.932;25.904;2023-07-30T02:20:03;5.47;;;3.00;;
8704;SDS011;4389;41.932;25.904;2023-07-30T02:22:31;5.87;;;2.80;;
8704;SDS011;4389;41.932;25.904;2023-07-30T02:24:57;9.10;;;3.53;;
8704;SDS011;4389;41.932;25.904;2023-07-30T02:27:26;5.97;;;2.63;;
8704;SDS011;4389;41.932;25.904;2023-07-30T02:29:52;8.23;;;3.13;;
8704;SDS011;4389;41.932;25.904;2023-07-30T02:32:19;19.50;;;4.83;;
8704;SDS011;4389;41.932;25.904;2023-07-30T02:34:46;14.83;;;3.50;;
8704;SDS011;4389;41.932;25.904;2023-07-30T02:37:13;40.67;;;4.37;;
8704;SDS011;4389;41.932;25.904;2023-07-30T02:39:40;12.13;;;3.47;;
8704;SDS011;4389;41.932;25.904;2023-07-30T02:42:07;7.27;;;2.83;;
8704;SDS011;4389;41.932;25.904;2023-07-30T02:44:35;7.07;;;3.23;;
8704;SDS011;4389;41.932;25.904;2023-07-30T02:47:02;3.57;;;3.20;;
8704;SDS011;4389;41.932;25.904;2023-07-30T02:49:29;4.70;;;2.77;;
8704;SDS011;4389;41.932;25.904;2023-07-30T02:51:56;4.53;;;2.70;;
8704;SDS011;4389;41.932;25.904;2023-07-30T02:54:22;6.03;;;3.03;;
8704;SDS011;4389;41.932;25.904;2023-07-30T02:56:49;6.67;;;3.00;;
8704;SDS011;4389;41.932;25.904;2023-07-30T02:59:16;8.47;;;3.57;;
8704;SDS011;4389;41.932;25.904;2023-07-30T03:01:44;11.30;;;3.70;;
8704;SDS011;4389;41.932;25.904;2023-07-30T03:04:11;42.67;;;5.33;;
8704;SDS011;4389;41.932;25.904;2023-07-30T03:06:38;31.27;;;4.43;;
8704;SDS011;4389;41.932;25.904;2023-07-30T03:09:05;12.50;;;3.47;;
8704;SDS011;4389;41.932;25.904;2023-07-30T03:11:32;8.87;;;3.23;;
8704;SDS011;4389;41.932;25.904;2023-07-30T03:13:59;3.67;;;2.67;;
8704;SDS011;4389;41.932;25.904;2023-07-30T03:16:26;7.90;;;2.70;;
8704;SDS011;4389;41.932;25.904;2023-07-30T03:18:54;10.70;;;3.43;;
8704;SDS011;4389;41.932;25.904;2023-07-30T03:21:21;5.90;;;3.17;;
8704;SDS011;4389;41.932;25.904;2023-07-30T03:23:47;4.93;;;2.90;;
8704;SDS011;4389;41.932;25.904;2023-07-30T03:26:14;9.37;;;3.17;;
8704;SDS011;4389;41.932;25.904;2023-07-30T03:28:41;13.57;;;3.37;;
8704;SDS011;4389;41.932;25.904;2023-07-30T03:31:08;9.33;;;4.50;;
8704;SDS011;4389;41.932;25.904;2023-07-30T03:33:34;3.80;;;2.60;;
8704;SDS011;4389;41.932;25.904;2023-07-30T03:36:03;3.57;;;3.03;;
8704;SDS011;4389;41.932;25.904;2023-07-30T03:38:30;5.10;;;2.73;;
8704;SDS011;4389;41.932;25.904;2023-07-30T03:40:57;8.13;;;2.83;;
8704;SDS011;4389;41.932;25.904;2023-07-30T03:43:23;6.47;;;2.50;;
8704;SDS011;4389;41.932;25.904;2023-07-30T03:45:50;4.83;;;2.67;;
8704;SDS011;4389;41.932;25.904;2023-07-30T03:48:17;3.67;;;2.80;;
8704;SDS011;4389;41.932;25.904;2023-07-30T03:50:44;14.37;;;2.83;;
8704;SDS011;4389;41.932;25.904;2023-07-30T03:53:12;8.27;;;3.17;;
8704;SDS011;4389;41.932;25.904;2023-07-30T03:55:38;5.63;;;2.70;;
8704;SDS011;4389;41.932;25.904;2023-07-30T03:58:06;22.07;;;3.77;;
8704;SDS011;4389;41.932;25.904;2023-07-30T04:00:33;4.43;;;2.63;;
8704;SDS011;4389;41.932;25.904;2023-07-30T04:02:59;10.23;;;3.10;;
8704;SDS011;4389;41.932;25.904;2023-07-30T04:05:26;8.37;;;3.10;;
8704;SDS011;4389;41.932;25.904;2023-07-30T04:07:53;5.10;;;2.70;;
8704;SDS011;4389;41.932;25.904;2023-07-30T04:10:21;6.53;;;3.00;;
8704;SDS011;4389;41.932;25.904;2023-07-30T04:12:48;41.40;;;5.03;;
8704;SDS011;4389;41.932;25.904;2023-07-30T04:15:15;107.25;;;9.75;;
8704;SDS011;4389;41.932;25.904;2023-07-30T04:17:42;49.03;;;5.15;;
8704;SDS011;4389;41.932;25.904;2023-07-30T04:20:09;8.82;;;3.70;;
8704;SDS011;4389;41.932;25.904;2023-07-30T04:22:36;5.43;;;3.00;;
8704;SDS011;4389;41.932;25.904;2023-07-30T04:25:03;6.68;;;3.00;;
8704;SDS011;4389;41.932;25.904;2023-07-30T04:27:34;7.03;;;2.85;;
8704;SDS011;4389;41.932;25.904;2023-07-30T04:30:00;11.30;;;3.03;;
8704;SDS011;4389;41.932;25.904;2023-07-30T04:32:27;8.13;;;3.00;;
8704;SDS011;4389;41.932;25.904;2023-07-30T04:34:54;6.80;;;3.40;;
8704;SDS011;4389;41.932;25.904;2023-07-30T04:37:21;15.38;;;4.00;;
8704;SDS011;4389;41.932;25.904;2023-07-30T04:39:48;16.60;;;3.47;;
8704;SDS011;4389;41.932;25.904;2023-07-30T04:42:15;10.68;;;3.08;;
8704;SDS011;4389;41.932;25.904;2023-07-30T04:44:43;25.88;;;4.38;;
8704;SDS011;4389;41.932;25.904;2023-07-30T04:47:10;9.63;;;3.90;;
8704;SDS011;4389;41.932;25.904;2023-07-30T04:49:37;6.97;;;3.60;;
8704;SDS011;4389;41.932;25.904;2023-07-30T04:52:05;5.63;;;3.35;;
8704;SDS011;4389;41.932;25.904;2023-07-30T04:54:33;10.55;;;3.25;;
8704;SDS011;4389;41.932;25.904;2023-07-30T04:57:01;11.13;;;4.38;;
8704;SDS011;4389;41.932;25.904;2023-07-30T04:59:28;7.85;;;3.67;;
8704;SDS011;4389;41.932;25.904;2023-07-30T05:01:56;10.73;;;4.03;;
8704;SDS011;4389;41.932;25.904;2023-07-30T05:04:23;4.85;;;3.53;;
8704;SDS011;4389;41.932;25.904;2023-07-30T05:06:50;37.05;;;6.07;;
8704;SDS011;4389;41.932;25.904;2023-07-30T05:09:17;27.90;;;7.17;;
8704;SDS011;4389;41.932;25.904;2023-07-30T05:11:44;9.80;;;5.90;;
8704;SDS011;4389;41.932;25.904;2023-07-30T05:14:10;11.43;;;5.93;;
8704;SDS011;4389;41.932;25.904;2023-07-30T05:16:37;12.03;;;6.33;;
8704;SDS011;4389;41.932;25.904;2023-07-30T05:19:05;13.47;;;5.80;;
8704;SDS011;4389;41.932;25.904;2023-07-30T05:21:32;12.90;;;5.70;;
8704;SDS011;4389;41.932;25.904;2023-07-30T05:23:59;10.93;;;5.20;;
8704;SDS011;4389;41.932;25.904;2023-07-30T05:26:26;21.93;;;5.70;;
8704;SDS011;4389;41.932;25.904;2023-07-30T05:28:52;14.47;;;5.43;;
8704;SDS011;4389;41.932;25.904;2023-07-30T05:31:19;6.47;;;4.50;;
8704;SDS011;4389;41.932;25.904;2023-07-30T05:33:46;9.47;;;4.60;;
8704;SDS011;4389;41.932;25.904;2023-07-30T05:36:14;8.93;;;4.30;;
8704;SDS011;4389;41.932;25.904;2023-07-30T05:38:41;9.23;;;3.80;;
8704;SDS011;4389;41.932;25.904;2023-07-30T05:41:08;6.10;;;3.67;;
8704;SDS011;4389;41.932;25.904;2023-07-30T05:43:35;5.90;;;4.10;;
8704;SDS011;4389;41.932;25.904;2023-07-30T05:46:02;4.10;;;3.37;;
8704;SDS011;4389;41.932;25.904;2023-07-30T05:48:28;5.47;;;3.40;;
8704;SDS011;4389;41.932;25.904;2023-07-30T05:50:55;11.00;;;2.83;;
8704;SDS011;4389;41.932;25.904;2023-07-30T05:53:23;7.53;;;3.27;;
8704;SDS011;4389;41.932;25.904;2023-07-30T05:55:50;7.47;;;3.23;;
8704;SDS011;4389;41.932;25.904;2023-07-30T05:58:17;5.07;;;3.60;;
8704;SDS011;4389;41.932;25.904;2023-07-30T06:00:44;7.77;;;3.30;;
8704;SDS011;4389;41.932;25.904;2023-07-30T06:03:11;13.47;;;6.47;;
8704;SDS011;4389;41.932;25.904;2023-07-30T06:05:41;7.33;;;5.90;;
8704;SDS011;4389;41.932;25.904;2023-07-30T06:08:08;6.70;;;5.70;;
8704;SDS011;4389;41.932;25.904;2023-07-30T06:10:36;6.43;;;5.50;;
8704;SDS011;4389;41.932;25.904;2023-07-30T06:13:03;12.13;;;5.60;;
8704;SDS011;4389;41.932;25.904;2023-07-30T06:15:30;7.00;;;5.57;;
8704;SDS011;4389;41.932;25.904;2023-07-30T06:17:58;8.80;;;6.00;;
8704;SDS011;4389;41.932;25.904;2023-07-30T06:20:25;6.20;;;4.43;;
8704;SDS011;4389;41.932;25.904;2023-07-30T06:22:52;6.03;;;5.30;;
8704;SDS011;4389;41.932;25.904;2023-07-30T06:25:18;6.70;;;4.60;;
8704;SDS011;4389;41.932;25.904;2023-07-30T06:27:47;6.77;;;5.10;;
8704;SDS011;4389;41.932;25.904;2023-07-30T06:30:14;7.27;;;5.30;;
8704;SDS011;4389;41.932;25.904;2023-07-30T06:32:43;12.48;;;5.20;;
8704;SDS011;4389;41.932;25.904;2023-07-30T06:35:10;7.03;;;4.72;;
8704;SDS011;4389;41.932;25.904;2023-07-30T06:37:37;17.67;;;4.72;;
8704;SDS011;4389;41.932;25.904;2023-07-30T06:40:04;17.67;;;5.20;;
8704;SDS011;4389;41.932;25.904;2023-07-30T06:42:32;9.60;;;4.57;;
8704;SDS011;4389;41.932;25.904;2023-07-30T06:45:01;8.10;;;4.80;;
8704;SDS011;4389;41.932;25.904;2023-07-30T06:47:28;7.57;;;4.38;;
8704;SDS011;4389;41.932;25.904;2023-07-30T06:49:55;10.65;;;4.95;;
8704;SDS011;4389;41.932;25.904;2023-07-30T06:52:22;6.10;;;4.30;;
8704;SDS011;4389;41.932;25.904;2023-07-30T06:54:48;11.98;;;5.00;;
8704;SDS011;4389;41.932;25.904;2023-07-30T06:57:15;8.98;;;4.18;;
8704;SDS011;4389;41.932;25.904;2023-07-30T06:59:42;8.30;;;4.30;;
8704;SDS011;4389;41.932;25.904;2023-07-30T07:02:11;6.93;;;3.83;;
8704;SDS011;4389;41.932;25.904;2023-07-30T07:04:37;14.70;;;4.45;;
8704;SDS011;4389;41.932;25.904;2023-07-30T07:07:04;7.00;;;3.92;;
8704;SDS011;4389;41.932;25.904;2023-07-30T07:09:31;8.43;;;3.47;;
8704;SDS011;4389;41.932;25.904;2023-07-30T07:11:58;6.70;;;4.00;;
8704;SDS011;4389;41.932;25.904;2023-07-30T07:14:26;18.20;;;4.47;;
8704;SDS011;4389;41.932;25.904;2023-07-30T07:16:53;9.63;;;4.05;;
8704;SDS011;4389;41.932;25.904;2023-07-30T07:19:23;43.40;;;8.07;;
8704;SDS011;4389;41.932;25.904;2023-07-30T07:21:50;7.40;;;4.00;;
8704;SDS011;4389;41.932;25.904;2023-07-30T07:24:17;4.47;;;3.15;;
8704;SDS011;4389;41.932;25.904;2023-07-30T07:26:44;9.10;;;4.03;;
8704;SDS011;4389;41.932;25.904;2023-07-30T07:29:11;4.97;;;3.25;;
8704;SDS011;4389;41.932;25.904;2023-07-30T07:31:37;7.95;;;3.55;;
8704;SDS011;4389;41.932;25.904;2023-07-30T07:34:04;8.23;;;4.05;;
8704;SDS011;4389;41.932;25.904;2023-07-30T07:36:32;3.75;;;3.38;;
8704;SDS011;4389;41.932;25.904;2023-07-30T07:39:00;5.68;;;3.60;;
8704;SDS011;4389;41.932;25.904;2023-07-30T07:41:28;9.52;;;3.40;;
8704;SDS011;4389;41.932;25.904;2023-07-30T07:43:55;5.47;;;3.63;;
8704;SDS011;4389;41.932;25.904;2023-07-30T07:46:22;11.02;;;3.28;;
8704;SDS011;4389;41.932;25.904;2023-07-30T07:48:51;8.15;;;3.28;;
8704;SDS011;4389;41.932;25.904;2023-07-30T07:51:18;8.57;;;4.13;;
8704;SDS011;4389;41.932;25.904;2023-07-30T07:53:46;3.78;;;2.78;;
8704;SDS011;4389;41.932;25.904;2023-07-30T07:56:13;8.93;;;3.10;;
8704;SDS011;4389;41.932;25.904;2023-07-30T07:58:40;8.00;;;3.20;;
8704;SDS011;4389;41.932;25.904;2023-07-30T08:01:08;4.40;;;2.95;;
8704;SDS011;4389;41.932;25.904;2023-07-30T08:03:35;5.88;;;2.92;;
8704;SDS011;4389;41.932;25.904;2023-07-30T08:06:02;3.83;;;2.88;;
8704;SDS011;4389;41.932;25.904;2023-07-30T08:08:29;8.93;;;3.17;;
8704;SDS011;4389;41.932;25.904;2023-07-30T08:10:58;6.43;;;2.25;;
8704;SDS011;4389;41.932;25.904;2023-07-30T08:13:24;4.65;;;2.80;;
8704;SDS011;4389;41.932;25.904;2023-07-30T08:15:51;3.08;;;2.60;;
8704;SDS011;4389;41.932;25.904;2023-07-30T08:18:18;16.33;;;3.22;;
8704;SDS011;4389;41.932;25.904;2023-07-30T08:20:45;6.97;;;2.90;;
8704;SDS011;4389;41.932;25.904;2023-07-30T08:23:12;5.55;;;2.70;;
8704;SDS011;4389;41.932;25.904;2023-07-30T08:25:39;2.80;;;2.50;;
8704;SDS011;4389;41.932;25.904;2023-07-30T08:28:07;3.15;;;2.42;;
8704;SDS011;4389;41.932;25.904;2023-07-30T08:30:34;7.22;;;2.72;;
8704;SDS011;4389;41.932;25.904;2023-07-30T08:33:01;4.03;;;2.70;;
8704;SDS011;4389;41.932;25.904;2023-07-30T08:35:28;14.25;;;2.63;;
8704;SDS011;4389;41.932;25.904;2023-07-30T08:37:55;6.15;;;2.60;;
8704;SDS011;4389;41.932;25.904;2023-07-30T08:40:22;6.15;;;2.53;;
8704;SDS011;4389;41.932;25.904;2023-07-30T08:42:49;9.18;;;3.05;;
8704;SDS011;4389;41.932;25.904;2023-07-30T08:45:18;6.68;;;2.85;;
8704;SDS011;4389;41.932;25.904;2023-07-30T08:47:45;16.20;;;3.83;;
8704;SDS011;4389;41.932;25.904;2023-07-30T08:50:13;7.40;;;3.65;;
8704;SDS011;4389;41.932;25.904;2023-07-30T08:52:40;4.13;;;2.83;;
8704;SDS011;4389;41.932;25.904;2023-07-30T08:55:07;4.95;;;2.63;;
8704;SDS011;4389;41.932;25.904;2023-07-30T08:57:36;5.95;;;2.92;;
8704;SDS011;4389;41.932;25.904;2023-07-30T09:00:05;2.97;;;2.67;;
8704;SDS011;4389;41.932;25.904;2023-07-30T09:02:37;21.27;;;4.10;;
8704;SDS011;4389;41.932;25.904;2023-07-30T09:05:05;4.03;;;2.22;;
8704;SDS011;4389;41.932;25.904;2023-07-30T09:07:32;6.22;;;2.60;;
8704;SDS011;4389;41.932;25.904;2023-07-30T09:09:59;4.78;;;2.90;;
8704;SDS011;4389;41.932;25.904;2023-07-30T09:12:28;4.30;;;2.28;;
8704;SDS011;4389;41.932;25.904;2023-07-30T09:14:56;5.00;;;2.40;;
8704;SDS011;4389;41.932;25.904;2023-07-30T09:17:23;3.00;;;2.28;;
8704;SDS011;4389;41.932;25.904;2023-07-30T09:19:51;2.88;;;2.40;;
8704;SDS011;4389;41.932;25.904;2023-07-30T09:22:24;10.02;;;3.28;;
8704;SDS011;4389;41.932;25.904;2023-07-30T09:24:52;2.53;;;2.30;;
8704;SDS011;4389;41.932;25.904;2023-07-30T09:27:20;4.10;;;2.00;;
8704;SDS011;4389;41.932;25.904;2023-07-30T09:29:51;12.50;;;2.72;;
8704;SDS011;4389;41.932;25.904;2023-07-30T09:32:19;13.23;;;3.75;;
8704;SDS011;4389;41.932;25.904;2023-07-30T09:34:46;4.20;;;2.10;;
8704;SDS011;4389;41.932;25.904;2023-07-30T09:37:14;7.72;;;2.35;;
8704;SDS011;4389;41.932;25.904;2023-07-30T09:39:42;3.83;;;2.40;;
8704;SDS011;4389;41.932;25.904;2023-07-30T09:42:09;2.70;;;2.45;;
8704;SDS011;4389;41.932;25.904;2023-07-30T09:44:37;17.10;;;2.92;;
8704;SDS011;4389;41.932;25.904;2023-07-30T09:47:05;2.30;;;2.10;;
8704;SDS011;4389;41.932;25.904;2023-07-30T09:49:36;4.40;;;2.25;;
8704;SDS011;4389;41.932;25.904;2023-07-30T09:52:03;5.72;;;2.33;;
8704;SDS011;4389;41.932;25.904;2023-07-30T09:54:32;2.83;;;2.22;;
8704;SDS011;4389;41.932;25.904;2023-07-30T09:56:59;2.85;;;2.33;;
8704;SDS011;4389;41.932;25.904;2023-07-30T09:59:26;4.63;;;2.30;;
8704;SDS011;4389;41.932;25.904;2023-07-30T10:01:52;2.90;;;2.20;;
8704;SDS011;4389;41.932;25.904;2023-07-30T10:04:21;2.80;;;2.45;;
8704;SDS011;4389;41.932;25.904;2023-07-30T10:06:49;2.90;;;2.33;;
8704;SDS011;4389;41.932;25.904;2023-07-30T10:09:21;3.17;;;2.10;;
8704;SDS011;4389;41.932;25.904;2023-07-30T10:11:53;4.13;;;2.13;;
8704;SDS011;4389;41.932;25.904;2023-07-30T10:14:21;3.78;;;2.22;;
8704;SDS011;4389;41.932;25.904;2023-07-30T10:16:49;2.40;;;2.08;;
8704;SDS011;4389;41.932;25.904;2023-07-30T10:19:21;3.65;;;2.75;;
8704;SDS011;4389;41.932;25.904;2023-07-30T10:21:49;4.32;;;2.30;;
8704;SDS011;4389;41.932;25.904;2023-07-30T10:24:16;3.65;;;2.58;;
8704;SDS011;4389;41.932;25.904;2023-07-30T10:26:43;4.43;;;2.10;;
8704;SDS011;4389;41.932;25.904;2023-07-30T10:29:12;4.00;;;2.35;;
8704;SDS011;4389;41.932;25.904;2023-07-30T10:31:40;5.40;;;2.17;;
8704;SDS011;4389;41.932;25.904;2023-07-30T10:34:07;4.07;;;2.40;;
8704;SDS011;4389;41.932;25.904;2023-07-30T10:36:44;2.50;;;2.25;;
8704;SDS011;4389;41.932;25.904;2023-07-30T10:39:14;2.55;;;2.35;;
8704;SDS011;4389;41.932;25.904;2023-07-30T10:41:45;2.80;;;2.60;;
8704;SDS011;4389;41.932;25.904;2023-07-30T10:44:23;5.32;;;3.40;;
8704;SDS011;4389;41.932;25.904;2023-07-30T10:46:51;4.50;;;3.25;;
8704;SDS011;4389;41.932;25.904;2023-07-30T10:49:18;3.78;;;2.33;;
8704;SDS011;4389;41.932;25.904;2023-07-30T10:51:44;5.32;;;2.13;;
8704;SDS011;4389;41.932;25.904;2023-07-30T10:54:11;3.22;;;2.25;;
8704;SDS011;4389;41.932;25.904;2023-07-30T10:56:38;3.28;;;2.20;;
8704;SDS011;4389;41.932;25.904;2023-07-30T10:59:05;3.55;;;2.55;;
8704;SDS011;4389;41.932;25.904;2023-07-30T11:01:37;2.47;;;2.25;;
8704;SDS011;4389;41.932;25.904;2023-07-30T11:04:06;2.63;;;2.15;;
8704;SDS011;4389;41.932;25.904;2023-07-30T11:06:33;3.10;;;2.25;;
8704;SDS011;4389;41.932;25.904;2023-07-30T11:09:00;2.15;;;1.95;;
8704;SDS011;4389;41.932;25.904;2023-07-30T11:11:27;6.97;;;2.10;;
8704;SDS011;4389;41.932;25.904;2023-07-30T11:13:54;2.17;;;1.98;;
8704;SDS011;4389;41.932;25.904;2023-07-30T11:16:21;3.75;;;2.35;;
8704;SDS011;4389;41.932;25.904;2023-07-30T11:18:49;7.43;;;2.20;;
8704;SDS011;4389;41.932;25.904;2023-07-30T11:21:17;2.35;;;2.08;;
8704;SDS011;4389;41.932;25.904;2023-07-30T11:23:45;2.80;;;2.42;;
8704;SDS011;4389;41.932;25.904;2023-07-30T11:26:13;4.10;;;2.47;;
8704;SDS011;4389;41.932;25.904;2023-07-30T11:28:41;7.40;;;3.03;;
8704;SDS011;4389;41.932;25.904;2023-07-30T11:31:08;2.53;;;2.30;;
8704;SDS011;4389;41.932;25.904;2023-07-30T11:33:36;4.47;;;3.08;;
8704;SDS011;4389;41.932;25.904;2023-07-30T11:36:06;3.95;;;2.47;;
8704;SDS011;4389;41.932;25.904;2023-07-30T11:38:34;3.83;;;2.35;;
8704;SDS011;4389;41.932;25.904;2023-07-30T11:41:02;4.22;;;3.05;;
8704;SDS011;4389;41.932;25.904;2023-07-30T11:43:30;5.85;;;2.53;;
8704;SDS011;4389;41.932;25.904;2023-07-30T11:46:13;3.03;;;2.50;;
8704;SDS011;4389;41.932;25.904;2023-07-30T11:48:40;2.53;;;2.33;;
8704;SDS011;4389;41.932;25.904;2023-07-30T11:51:19;2.22;;;1.95;;
8704;SDS011;4389;41.932;25.904;2023-07-30T11:53:48;7.85;;;2.60;;
8704;SDS011;4389;41.932;25.904;2023-07-30T11:56:19;2.50;;;2.15;;
8704;SDS011;4389;41.932;25.904;2023-07-30T11:58:48;2.63;;;2.20;;
8704;SDS011;4389;41.932;25.904;2023-07-30T12:01:16;2.97;;;2.55;;
8704;SDS011;4389;41.932;25.904;2023-07-30T12:03:43;4.68;;;2.90;;
8704;SDS011;4389;41.932;25.904;2023-07-30T12:06:11;4.97;;;2.45;;
8704;SDS011;4389;41.932;25.904;2023-07-30T12:08:39;4.72;;;2.20;;
8704;SDS011;4389;41.932;25.904;2023-07-30T12:11:06;4.00;;;2.00;;
8704;SDS011;4389;41.932;25.904;2023-07-30T12:13:34;5.65;;;1.95;;
8704;SDS011;4389;41.932;25.904;2023-07-30T12:16:08;2.60;;;1.90;;
8704;SDS011;4389;41.932;25.904;2023-07-30T12:18:34;2.67;;;2.13;;
8704;SDS011;4389;41.932;25.904;2023-07-30T12:21:01;3.25;;;2.28;;
8704;SDS011;4389;41.932;25.904;2023-07-30T12:23:32;2.35;;;2.15;;
8704;SDS011;4389;41.932;25.904;2023-07-30T12:26:00;2.80;;;2.20;;
8704;SDS011;4389;41.932;25.904;2023-07-30T12:28:29;2.35;;;2.13;;
8704;SDS011;4389;41.932;25.904;2023-07-30T12:30:57;2.40;;;2.08;;
8704;SDS011;4389;41.932;25.904;2023-07-30T12:33:24;2.33;;;2.10;;
8704;SDS011;4389;41.932;25.904;2023-07-30T12:35:51;3.70;;;2.20;;
8704;SDS011;4389;41.932;25.904;2023-07-30T12:38:18;2.97;;;2.40;;
8704;SDS011;4389;41.932;25.904;2023-07-30T12:40:45;3.42;;;2.33;;
8704;SDS011;4389;41.932;25.904;2023-07-30T12:43:13;5.95;;;2.60;;
8704;SDS011;4389;41.932;25.904;2023-07-30T12:45:40;4.00;;;2.25;;
8704;SDS011;4389;41.932;25.904;2023-07-30T12:48:07;2.13;;;1.80;;
8704;SDS011;4389;41.932;25.904;2023-07-30T12:50:34;2.05;;;1.85;;
8704;SDS011;4389;41.932;25.904;2023-07-30T12:53:01;2.95;;;2.05;;
8704;SDS011;4389;41.932;25.904;2023-07-30T12:55:27;2.40;;;2.05;;
8704;SDS011;4389;41.932;25.904;2023-07-30T12:57:54;2.50;;;2.00;;
8704;SDS011;4389;41.932;25.904;2023-07-30T13:00:22;2.75;;;2.45;;
8704;SDS011;4389;41.932;25.904;2023-07-30T13:02:49;2.40;;;2.20;;
8704;SDS011;4389;41.932;25.904;2023-07-30T13:05:17;3.85;;;2.60;;
8704;SDS011;4389;41.932;25.904;2023-07-30T13:07:44;4.57;;;1.95;;
8704;SDS011;4389;41.932;25.904;2023-07-30T13:10:11;2.10;;;1.90;;
8704;SDS011;4389;41.932;25.904;2023-07-30T13:12:38;2.40;;;1.92;;
8704;SDS011;4389;41.932;25.904;2023-07-30T13:15:05;3.13;;;2.25;;
8704;SDS011;4389;41.932;25.904;2023-07-30T13:17:34;2.35;;;2.00;;
8704;SDS011;4389;41.932;25.904;2023-07-30T13:20:01;3.65;;;1.95;;
8704;SDS011;4389;41.932;25.904;2023-07-30T13:22:29;3.55;;;2.10;;
8704;SDS011;4389;41.932;25.904;2023-07-30T13:24:56;2.33;;;2.10;;
8704;SDS011;4389;41.932;25.904;2023-07-30T13:27:23;13.07;;;3.08;;
8704;SDS011;4389;41.932;25.904;2023-07-30T13:29:49;3.47;;;2.10;;
8704;SDS011;4389;41.932;25.904;2023-07-30T13:32:16;5.15;;;2.17;;
8704;SDS011;4389;41.932;25.904;2023-07-30T13:34:45;3.20;;;1.70;;
8704;SDS011;4389;41.932;25.904;2023-07-30T13:37:12;23.08;;;4.55;;
8704;SDS011;4389;41.932;25.904;2023-07-30T13:39:38;4.88;;;2.15;;
8704;SDS011;4389;41.932;25.904;2023-07-30T13:42:06;3.60;;;2.28;;
8704;SDS011;4389;41.932;25.904;2023-07-30T13:44:33;2.30;;;2.03;;
8704;SDS011;4389;41.932;25.904;2023-07-30T13:47:00;4.47;;;2.28;;
8704;SDS011;4389;41.932;25.904;2023-07-30T13:49:26;6.70;;;2.10;;
8704;SDS011;4389;41.932;25.904;2023-07-30T13:51:54;4.68;;;2.42;;
8704;SDS011;4389;41.932;25.904;2023-07-30T13:54:21;2.97;;;2.05;;
8704;SDS011;4389;41.932;25.904;2023-07-30T13:56:48;2.83;;;2.38;;
8704;SDS011;4389;41.932;25.904;2023-07-30T13:59:15;3.15;;;1.85;;
8704;SDS011;4389;41.932;25.904;2023-07-30T14:01:42;3.33;;;2.53;;
8704;SDS011;4389;41.932;25.904;2023-07-30T14:04:09;2.30;;;2.10;;
8704;SDS011;4389;41.932;25.904;2023-07-30T14:06:36;2.20;;;2.00;;
8704;SDS011;4389;41.932;25.904;2023-07-30T14:09:04;3.90;;;2.30;;
8704;SDS011;4389;41.932;25.904;2023-07-30T14:11:31;3.42;;;2.42;;
8704;SDS011;4389;41.932;25.904;2023-07-30T14:13:58;4.70;;;2.38;;
8704;SDS011;4389;41.932;25.904;2023-07-30T14:16:25;3.78;;;2.75;;
8704;SDS011;4389;41.932;25.904;2023-07-30T14:18:52;2.67;;;2.17;;
8704;SDS011;4389;41.932;25.904;2023-07-30T14:21:19;2.70;;;2.50;;
8704;SDS011;4389;41.932;25.904;2023-07-30T14:23:45;4.65;;;2.70;;
8704;SDS011;4389;41.932;25.904;2023-07-30T14:26:14;4.63;;;1.88;;
8704;SDS011;4389;41.932;25.904;2023-07-30T14:28:40;2.50;;;2.30;;
8704;SDS011;4389;41.932;25.904;2023-07-30T14:31:07;5.35;;;2.40;;
8704;SDS011;4389;41.932;25.904;2023-07-30T14:33:34;5.05;;;2.30;;
8704;SDS011;4389;41.932;25.904;2023-07-30T14:36:01;2.40;;;2.20;;
8704;SDS011;4389;41.932;25.904;2023-07-30T14:38:29;3.72;;;2.33;;
8704;SDS011;4389;41.932;25.904;2023-07-30T14:40:56;3.10;;;2.15;;
8704;SDS011;4389;41.932;25.904;2023-07-30T14:43:24;4.45;;;2.28;;
8704;SDS011;4389;41.932;25.904;2023-07-30T14:45:51;2.70;;;2.10;;
8704;SDS011;4389;41.932;25.904;2023-07-30T14:48:18;3.47;;;2.45;;
8704;SDS011;4389;41.932;25.904;2023-07-30T14:50:45;2.85;;;2.22;;
8704;SDS011;4389;41.932;25.904;2023-07-30T14:53:12;3.67;;;2.08;;
8704;SDS011;4389;41.932;25.904;2023-07-30T14:55:39;3.17;;;2.80;;
8704;SDS011;4389;41.932;25.904;2023-07-30T14:58:06;3.80;;;2.22;;
8704;SDS011;4389;41.932;25.904;2023-07-30T15:00:35;4.65;;;2.40;;
8704;SDS011;4389;41.932;25.904;2023-07-30T15:03:02;6.65;;;2.78;;